createdAt,value
2022-10-07T00:03:27.275Z,30.63
2022-10-07T00:08:21.020Z,30.48
2022-10-07T00:13:15.318Z,34.13
2022-10-07T00:18:09.993Z,31.52
2022-10-07T00:23:03.184Z,30.63
2022-10-07T00:27:57.984Z,30.73
2022-10-07T00:32:52.814Z,33.40
2022-10-07T00:37:48.371Z,36.13
2022-10-07T00:42:41.717Z,36.60
2022-10-07T00:47:35.960Z,40.38
2022-10-07T00:52:30.781Z,34.78
2022-10-07T00:57:26.210Z,31.77
2022-10-07T01:02:20.942Z,35.75
2022-10-07T01:07:19.055Z,31.90
2022-10-07T01:12:30.700Z,35.92
2022-10-07T01:17:37.462Z,44.85
2022-10-07T01:22:39.734Z,35.95
2022-10-07T01:27:32.788Z,44.55
2022-10-07T01:32:37.371Z,39.38
2022-10-07T01:37:36.485Z,43.40
2022-10-07T01:47:23.864Z,44.38
2022-10-07T01:52:34.020Z,46.17
2022-10-07T01:57:55.861Z,43.22
2022-10-07T02:03:18.810Z,38.03
2022-10-07T02:08:43.610Z,37.97
2022-10-07T02:14:01.827Z,36.65
2022-10-07T02:19:00.134Z,38.88
2022-10-07T02:23:55.500Z,38.50
2022-10-07T02:28:53.063Z,41.53
2022-10-07T02:33:48.835Z,40.15
2022-10-07T02:38:43.033Z,43.08
2022-10-07T02:43:42.968Z,38.25
2022-10-07T02:49:00.563Z,38.42
2022-10-07T02:53:54.600Z,34.67
2022-10-07T02:58:50.523Z,33.88
2022-10-07T03:03:44.166Z,31.95
2022-10-07T03:08:38.048Z,29.95
2022-10-07T03:13:36.153Z,37.60
2022-10-07T03:18:30.872Z,32.10
2022-10-07T03:23:53.459Z,32.83
2022-10-07T03:28:50.780Z,36.15
2022-10-07T03:33:47.143Z,34.90
2022-10-07T03:38:40.754Z,35.75
2022-10-07T03:43:36.130Z,35.28
2022-10-07T03:48:32.567Z,33.38
2022-10-07T03:53:30.118Z,34.00
2022-10-07T03:58:26.580Z,39.15
2022-10-07T04:03:20.285Z,32.50
2022-10-07T04:08:18.166Z,32.53
2022-10-07T04:13:11.860Z,35.92
2022-10-07T04:18:07.912Z,35.78
2022-10-07T04:23:01.457Z,32.33
2022-10-07T04:27:59.855Z,35.65
2022-10-07T04:32:54.203Z,37.10
2022-10-07T04:37:51.703Z,30.70
2022-10-07T04:43:04.627Z,35.72
2022-10-07T04:47:58.406Z,33.10
2022-10-07T04:52:52.156Z,35.67
2022-10-07T04:57:46.518Z,29.75
2022-10-07T05:02:40.908Z,33.60
2022-10-07T05:07:35.349Z,32.72
2022-10-07T05:12:29.385Z,33.15
2022-10-07T05:17:24.575Z,30.60
2022-10-07T05:22:18.759Z,35.45
2022-10-07T05:27:14.795Z,25.23
2022-10-07T05:32:10.124Z,31.67
2022-10-07T05:37:03.654Z,36.78
2022-10-07T05:41:58.616Z,41.35
2022-10-07T05:46:56.951Z,37.58
2022-10-07T05:51:50.158Z,37.95
2022-10-07T05:56:42.952Z,35.60
2022-10-07T06:01:36.816Z,42.75
2022-10-07T06:06:37.331Z,42.38
2022-10-07T06:11:53.058Z,37.28
2022-10-07T06:16:46.771Z,41.20
2022-10-07T06:21:41.018Z,35.60
2022-10-07T06:26:35.343Z,41.95
2022-10-07T06:31:29.345Z,37.50
2022-10-07T06:36:28.365Z,34.88
2022-10-07T06:41:24.453Z,39.90
2022-10-07T06:46:30.261Z,38.22
2022-10-07T06:51:23.818Z,44.95
2022-10-07T06:56:17.019Z,45.90
2022-10-07T07:01:10.872Z,40.45
2022-10-07T07:06:04.908Z,43.20
2022-10-07T07:11:28.478Z,41.38
2022-10-07T07:16:27.196Z,41.22
2022-10-07T07:21:21.211Z,35.35
2022-10-07T07:26:15.411Z,33.47
2022-10-07T07:31:11.262Z,35.92
2022-10-07T07:36:25.588Z,33.72
2022-10-07T07:41:22.356Z,34.10
2022-10-07T07:46:15.538Z,31.73
2022-10-07T07:51:09.625Z,32.90
2022-10-07T07:56:03.696Z,33.30
2022-10-07T08:01:27.142Z,32.67
2022-10-07T08:06:22.057Z,31.27
2022-10-07T08:11:18.043Z,30.80
2022-10-07T08:16:15.289Z,30.30
2022-10-07T08:21:11.412Z,31.17
2022-10-07T08:26:05.794Z,28.58
2022-10-07T08:31:28.250Z,30.33
2022-10-07T08:36:23.161Z,29.88
2022-10-07T08:41:50.566Z,27.92
2022-10-07T08:46:55.772Z,24.95
2022-10-07T08:52:17.607Z,26.45
2022-10-07T08:57:23.006Z,31.25
2022-10-07T09:02:28.286Z,26.85
2022-10-07T09:07:33.109Z,25.33
2022-10-07T09:12:42.950Z,24.98
2022-10-07T09:17:40.341Z,28.35
2022-10-07T09:22:38.866Z,25.67
2022-10-07T09:27:34.073Z,24.55
2022-10-07T09:32:27.827Z,23.10
2022-10-07T09:37:22.844Z,24.65
2022-10-07T09:42:30.708Z,24.30
2022-10-07T09:47:26.868Z,23.90
2022-10-07T09:52:23.724Z,22.67
2022-10-07T09:57:31.374Z,22.23
2022-10-07T10:02:27.548Z,20.13
2022-10-07T10:07:38.107Z,19.27
2022-10-07T10:12:37.126Z,18.50
2022-10-07T10:17:38.159Z,19.45
2022-10-07T10:22:32.510Z,16.98
2022-10-07T10:27:35.867Z,17.17
2022-10-07T10:32:41.101Z,14.98
2022-10-07T10:38:05.786Z,17.58
2022-10-07T10:43:26.680Z,16.20
2022-10-07T10:48:36.419Z,16.70
2022-10-07T10:53:31.636Z,15.82
2022-10-07T10:58:45.019Z,15.05
2022-10-07T11:03:52.212Z,8.50
2022-10-07T11:08:48.245Z,13.48
2022-10-07T11:13:49.031Z,11.55
2022-10-07T11:18:46.612Z,16.63
2022-10-07T11:24:04.634Z,12.20
2022-10-07T11:29:19.155Z,7.78
2022-10-07T11:34:21.299Z,7.60
2022-10-07T11:39:15.249Z,9.10
2022-10-07T11:44:16.888Z,11.88
2022-10-07T11:49:35.743Z,11.55
2022-10-07T11:54:31.131Z,15.02
2022-10-07T12:00:00.595Z,15.25
2022-10-07T12:04:58.361Z,17.38
2022-10-07T12:10:06.520Z,16.33
2022-10-07T12:15:04.441Z,17.30
2022-10-07T12:20:47.190Z,12.57
2022-10-07T12:25:45.375Z,13.68
2022-10-07T12:30:43.073Z,12.05
2022-10-07T12:35:48.767Z,11.18
2022-10-07T12:40:51.796Z,13.85
2022-10-07T12:45:45.358Z,14.38
2022-10-07T12:50:41.499Z,13.90
2022-10-07T12:55:38.873Z,12.52
2022-10-07T13:00:37.234Z,10.30
2022-10-07T13:06:11.289Z,15.07
2022-10-07T13:11:16.477Z,10.40
2022-10-07T13:16:20.828Z,10.52
2022-10-07T13:21:20.476Z,15.10
2022-10-07T13:26:16.045Z,9.70
2022-10-07T13:31:22.419Z,13.93
2022-10-07T13:36:29.433Z,12.30
2022-10-07T13:41:30.300Z,11.13
2022-10-07T13:46:26.539Z,16.45
2022-10-07T13:51:43.595Z,11.13
2022-10-07T13:56:41.310Z,15.70
2022-10-07T14:01:37.801Z,17.67
2022-10-07T14:07:01.424Z,16.48
2022-10-07T14:11:57.373Z,8.52
2022-10-07T14:16:57.565Z,14.88
2022-10-07T14:21:52.725Z,12.73
2022-10-07T14:26:47.325Z,11.25
2022-10-07T14:32:00.346Z,12.45
2022-10-07T14:37:15.226Z,14.95
2022-10-07T14:42:13.547Z,11.98
2022-10-07T14:47:24.402Z,11.10
2022-10-07T14:52:24.124Z,17.55
2022-10-07T14:57:22.198Z,13.88
2022-10-07T15:02:15.969Z,16.30
2022-10-07T15:07:10.661Z,17.10
2022-10-07T15:12:05.593Z,11.77
2022-10-07T15:16:59.379Z,19.65
2022-10-07T15:21:53.845Z,14.35
2022-10-07T15:26:48.227Z,10.93
2022-10-07T15:31:43.318Z,12.80
2022-10-07T15:36:37.826Z,15.57
2022-10-07T15:41:37.657Z,15.05
2022-10-07T15:46:32.160Z,15.85
2022-10-07T15:51:26.912Z,12.25
2022-10-07T15:56:21.375Z,14.70
2022-10-07T16:01:15.890Z,15.85
2022-10-07T16:06:11.984Z,15.93
2022-10-07T16:11:08.619Z,10.55
2022-10-07T16:16:07.174Z,13.02
2022-10-07T16:21:32.621Z,17.33
2022-10-07T16:26:30.090Z,17.83
2022-10-07T16:31:24.230Z,13.52
2022-10-07T16:36:18.138Z,14.52
2022-10-07T16:41:11.554Z,12.35
2022-10-07T16:46:08.512Z,13.80
2022-10-07T16:51:02.456Z,9.68
2022-10-07T16:55:56.885Z,12.80
2022-10-07T17:00:50.080Z,9.05
2022-10-07T17:05:44.088Z,12.02
2022-10-07T17:10:37.611Z,17.08
2022-10-07T17:15:31.790Z,13.60
2022-10-07T17:20:28.354Z,14.07
2022-10-07T17:25:22.661Z,12.88
2022-10-07T17:30:17.079Z,14.60
2022-10-07T17:35:11.157Z,16.50
2022-10-07T17:40:05.528Z,18.20
2022-10-07T17:45:00.991Z,14.38
2022-10-07T17:49:54.845Z,13.00
2022-10-07T17:54:50.868Z,21.65
2022-10-07T17:59:44.960Z,14.52
2022-10-07T18:04:39.723Z,18.83
2022-10-07T18:09:34.394Z,16.85
2022-10-07T18:14:47.676Z,14.23
2022-10-07T18:19:45.654Z,24.48
2022-10-07T18:24:38.681Z,15.50
2022-10-07T18:29:39.766Z,15.05
2022-10-07T18:34:33.828Z,18.38
2022-10-07T18:39:30.551Z,21.20
2022-10-07T18:44:24.022Z,13.07
2022-10-07T18:49:18.037Z,15.15
2022-10-07T18:54:14.791Z,12.85
2022-10-07T18:59:13.157Z,21.17
2022-10-07T19:04:08.469Z,16.13
2022-10-07T19:09:03.365Z,24.63
2022-10-07T19:13:58.968Z,32.70
2022-10-07T19:18:53.806Z,15.75
2022-10-07T19:23:51.829Z,18.23
2022-10-07T19:28:46.887Z,10.60
2022-10-07T19:33:40.280Z,19.08
2022-10-07T19:38:34.392Z,20.30
2022-10-07T19:43:28.633Z,18.50
2022-10-07T19:48:23.419Z,13.50
2022-10-07T19:53:17.277Z,17.83
2022-10-07T19:58:10.552Z,20.00
2022-10-07T20:03:04.491Z,17.33
2022-10-07T20:07:59.714Z,14.48
2022-10-07T20:12:54.057Z,14.73
2022-10-07T20:17:49.866Z,22.00
2022-10-07T20:22:48.545Z,22.35
2022-10-07T20:27:42.987Z,14.85
2022-10-07T20:32:40.945Z,18.55
2022-10-07T20:42:42.190Z,14.68
2022-10-07T20:47:42.550Z,14.27
2022-10-07T20:52:41.277Z,17.48
2022-10-07T20:57:40.578Z,18.73
2022-10-07T21:02:39.697Z,23.05
2022-10-07T21:07:41.118Z,15.57
2022-10-07T21:12:38.159Z,17.63
2022-10-07T21:17:40.066Z,17.90
2022-10-07T21:22:39.105Z,19.88
2022-10-07T21:27:39.064Z,18.60
2022-10-07T21:32:37.498Z,18.02
2022-10-07T21:37:37.108Z,21.40
2022-10-07T21:42:36.456Z,23.60
2022-10-07T21:47:36.773Z,23.08
2022-10-07T21:52:35.503Z,27.23
2022-10-07T21:57:35.564Z,40.05
2022-10-07T22:07:46.383Z,16.95
2022-10-07T22:12:50.609Z,17.95
2022-10-07T22:17:52.524Z,19.05
2022-10-07T22:22:55.518Z,19.83
2022-10-07T22:28:01.630Z,18.63
2022-10-07T22:33:06.397Z,18.70
2022-10-07T22:38:05.127Z,20.83
2022-10-07T22:43:09.391Z,20.50
2022-10-07T22:48:09.518Z,23.95
2022-10-07T22:58:04.397Z,19.67
2022-10-07T23:03:01.495Z,17.88
2022-10-07T23:07:55.797Z,18.77
2022-10-07T23:12:49.672Z,20.10
2022-10-07T23:17:43.800Z,21.40
2022-10-07T23:22:40.765Z,20.05
2022-10-07T23:27:34.969Z,19.48
2022-10-07T23:32:27.987Z,23.17
2022-10-07T23:37:22.296Z,25.13
2022-10-07T23:42:16.105Z,25.02
2022-10-07T23:47:10.229Z,20.88
2022-10-07T23:52:04.086Z,22.60
2022-10-07T23:56:57.129Z,19.10
